createdAt,value
2024-03-15T00:00:54.522Z,73.18
2024-03-15T00:03:22.400Z,73.85
2024-03-15T00:05:48.972Z,73.83
2024-03-15T00:08:15.516Z,73.83
2024-03-15T00:10:42.075Z,74.23
2024-03-15T00:13:08.701Z,74.70
2024-03-15T00:15:35.300Z,74.45
2024-03-15T00:18:02.467Z,74.37
2024-03-15T00:20:29.095Z,75.37
2024-03-15T00:22:55.605Z,75.38
2024-03-15T00:25:22.661Z,74.79
2024-03-15T00:27:49.947Z,74.27
2024-03-15T00:30:16.815Z,73.61
2024-03-15T00:32:43.700Z,73.61
2024-03-15T00:35:10.502Z,73.76
2024-03-15T00:37:37.511Z,73.89
2024-03-15T00:40:04.970Z,72.39
2024-03-15T00:42:31.993Z,73.23
2024-03-15T00:44:59.071Z,73.07
2024-03-15T00:47:25.835Z,72.47
2024-03-15T00:49:52.431Z,72.38
2024-03-15T00:52:19.136Z,72.40
2024-03-15T00:54:47.320Z,73.20
2024-03-15T00:57:14.767Z,73.25
2024-03-15T00:59:41.369Z,73.55
2024-03-15T01:02:07.958Z,73.79
2024-03-15T01:04:36.092Z,74.34
2024-03-15T01:07:03.246Z,74.68
2024-03-15T01:09:31.052Z,74.60
2024-03-15T01:11:58.359Z,75.04
2024-03-15T01:14:24.966Z,75.11
2024-03-15T01:16:51.572Z,75.86
2024-03-15T01:19:18.205Z,76.10
2024-03-15T01:21:45.010Z,76.24
2024-03-15T01:24:14.075Z,76.20
2024-03-15T01:26:41.239Z,76.41
2024-03-15T01:29:09.142Z,76.55
2024-03-15T01:31:37.110Z,76.33
2024-03-15T01:34:03.862Z,76.67
2024-03-15T01:36:30.588Z,76.86
2024-03-15T01:38:57.222Z,77.43
2024-03-15T01:41:23.778Z,77.61
2024-03-15T01:43:50.289Z,77.78
2024-03-15T01:46:17.592Z,77.87
2024-03-15T01:48:45.876Z,77.71
2024-03-15T01:51:13.312Z,78.29
2024-03-15T01:53:40.879Z,77.88
2024-03-15T01:56:07.669Z,77.37
2024-03-15T01:58:34.268Z,77.66
2024-03-15T02:01:01.051Z,77.61
2024-03-15T02:03:31.171Z,77.73
2024-03-15T02:05:57.840Z,77.75
2024-03-15T02:08:25.531Z,77.51
2024-03-15T02:10:52.645Z,77.72
2024-03-15T02:13:19.254Z,77.27
2024-03-15T02:15:46.025Z,78.22
2024-03-15T02:18:12.824Z,78.27
2024-03-15T02:20:39.402Z,78.21
2024-03-15T02:23:06.016Z,78.35
2024-03-15T02:25:33.099Z,78.19
2024-03-15T02:27:59.787Z,78.44
2024-03-15T02:30:26.975Z,78.78
2024-03-15T02:32:53.836Z,78.42
2024-03-15T02:35:27.778Z,78.71
2024-03-15T02:37:59.156Z,78.68
2024-03-15T02:40:25.821Z,78.39
2024-03-15T02:42:53.238Z,78.08
2024-03-15T02:45:22.593Z,78.91
2024-03-15T02:47:49.785Z,78.93
2024-03-15T02:50:16.525Z,78.15
2024-03-15T02:52:44.939Z,78.01
2024-03-15T02:55:12.416Z,77.74
2024-03-15T02:57:39.489Z,77.64
2024-03-15T03:00:07.045Z,78.30
2024-03-15T03:02:33.658Z,77.80
2024-03-15T03:05:00.253Z,78.37
2024-03-15T03:07:26.990Z,78.67
2024-03-15T03:09:53.850Z,78.83
2024-03-15T03:12:20.584Z,79.24
2024-03-15T03:14:47.229Z,79.64
2024-03-15T03:17:15.855Z,79.76
2024-03-15T03:19:42.708Z,79.77
2024-03-15T03:22:09.476Z,79.93
2024-03-15T03:24:36.231Z,79.78
2024-03-15T03:27:02.854Z,80.10
2024-03-15T03:29:30.053Z,80.38
2024-03-15T03:31:56.885Z,80.40
2024-03-15T03:34:24.017Z,80.27
2024-03-15T03:36:50.919Z,80.61
2024-03-15T03:39:19.421Z,80.99
2024-03-15T03:41:46.033Z,80.91
2024-03-15T03:44:12.558Z,81.21
2024-03-15T03:46:39.090Z,81.14
2024-03-15T03:49:05.621Z,81.41
2024-03-15T03:51:32.769Z,81.14
2024-03-15T03:53:59.511Z,81.11
2024-03-15T03:56:26.268Z,81.34
2024-03-15T03:58:53.749Z,80.85
2024-03-15T04:01:20.423Z,81.23
2024-03-15T04:03:50.780Z,80.83
2024-03-15T04:06:17.659Z,80.81
2024-03-15T04:08:45.348Z,81.18
2024-03-15T04:11:12.208Z,81.71
2024-03-15T04:13:38.848Z,81.32
2024-03-15T04:16:05.758Z,81.53
2024-03-15T04:18:34.509Z,81.31
2024-03-15T04:21:01.542Z,81.19
2024-03-15T04:23:28.233Z,81.34
2024-03-15T04:25:56.416Z,80.62
2024-03-15T04:28:23.409Z,81.29
2024-03-15T04:30:50.326Z,80.82
2024-03-15T04:33:18.428Z,80.94
2024-03-15T04:35:45.198Z,81.00
2024-03-15T04:38:11.718Z,81.47
2024-03-15T04:40:38.255Z,80.82
2024-03-15T04:43:05.251Z,80.71
2024-03-15T04:45:31.907Z,80.96
2024-03-15T04:47:59.233Z,80.73
2024-03-15T04:50:26.166Z,81.00
2024-03-15T04:52:53.742Z,81.98
2024-03-15T04:55:23.526Z,81.02
2024-03-15T04:57:51.047Z,81.43
2024-03-15T05:00:21.548Z,81.49
2024-03-15T05:02:49.844Z,81.74
2024-03-15T05:05:17.632Z,81.88
2024-03-15T05:07:45.364Z,81.95
2024-03-15T05:10:18.984Z,81.78
2024-03-15T05:12:46.723Z,81.96
2024-03-15T05:15:14.314Z,82.01
2024-03-15T05:17:41.584Z,81.73
2024-03-15T05:20:14.697Z,81.86
2024-03-15T05:22:45.536Z,81.74
2024-03-15T05:25:15.549Z,81.80
2024-03-15T05:27:42.335Z,81.90
2024-03-15T05:30:09.943Z,81.78
2024-03-15T05:32:36.752Z,81.49
2024-03-15T05:35:03.456Z,81.91
2024-03-15T05:37:30.298Z,81.77
2024-03-15T05:39:57.143Z,82.41
2024-03-15T05:42:23.800Z,81.88
2024-03-15T05:44:50.535Z,81.74
2024-03-15T05:47:17.815Z,82.11
2024-03-15T05:49:44.575Z,81.65
2024-03-15T05:52:15.970Z,81.80
2024-03-15T05:54:43.119Z,81.81
2024-03-15T05:57:10.104Z,81.70
2024-03-15T05:59:36.998Z,81.22
2024-03-15T06:02:04.046Z,81.25
2024-03-15T06:04:33.951Z,81.27
2024-03-15T06:07:01.337Z,80.98
2024-03-15T06:09:30.799Z,81.16
2024-03-15T06:11:57.573Z,80.85
2024-03-15T06:14:26.037Z,80.48
2024-03-15T06:16:52.571Z,80.14
2024-03-15T06:19:20.561Z,79.64
2024-03-15T06:21:49.622Z,79.60
2024-03-15T06:24:21.053Z,79.30
2024-03-15T06:26:57.058Z,79.00
2024-03-15T06:29:32.269Z,78.26
2024-03-15T06:31:59.384Z,78.19
2024-03-15T06:34:26.146Z,77.97
2024-03-15T06:36:55.670Z,78.06
2024-03-15T06:39:37.716Z,77.84
2024-03-15T06:42:23.584Z,78.10
2024-03-15T06:45:04.689Z,77.57
2024-03-15T06:47:34.488Z,77.41
2024-03-15T06:50:29.990Z,77.19
2024-03-15T06:52:56.481Z,76.40
2024-03-15T06:55:23.080Z,76.46
2024-03-15T06:57:50.103Z,76.20
2024-03-15T07:00:17.348Z,75.35
2024-03-15T07:02:44.943Z,75.27
2024-03-15T07:05:12.868Z,75.65
2024-03-15T07:07:39.803Z,75.52
2024-03-15T07:10:07.057Z,74.79
2024-03-15T07:12:34.108Z,74.70
2024-03-15T07:15:00.892Z,75.24
2024-03-15T07:17:27.798Z,74.45
2024-03-15T07:19:57.047Z,74.43
2024-03-15T07:22:27.142Z,74.46
2024-03-15T07:24:54.032Z,74.66
2024-03-15T07:27:22.141Z,74.30
2024-03-15T07:29:48.701Z,74.32
2024-03-15T07:32:15.195Z,74.78
2024-03-15T07:34:41.741Z,74.31
2024-03-15T07:37:08.350Z,73.98
2024-03-15T07:39:34.964Z,73.06
2024-03-15T07:42:01.605Z,72.72
2024-03-15T07:44:29.437Z,72.26
2024-03-15T07:46:59.228Z,72.15
2024-03-15T07:49:26.293Z,72.42
2024-03-15T07:51:53.094Z,71.48
2024-03-15T07:54:20.112Z,71.77
2024-03-15T07:56:46.721Z,70.57
2024-03-15T07:59:14.256Z,69.79
2024-03-15T08:01:42.486Z,70.22
2024-03-15T08:04:10.439Z,70.38
2024-03-15T08:06:38.444Z,69.69
2024-03-15T08:09:06.302Z,69.06
2024-03-15T08:11:36.986Z,68.81
2024-03-15T08:14:04.185Z,68.91
2024-03-15T08:16:37.421Z,68.77
2024-03-15T08:19:05.713Z,67.99
2024-03-15T08:21:32.639Z,67.42
2024-03-15T08:24:05.557Z,67.67
2024-03-15T08:26:33.718Z,67.64
2024-03-15T08:29:04.016Z,66.85
2024-03-15T08:31:33.500Z,65.64
2024-03-15T08:34:05.162Z,67.18
2024-03-15T08:36:33.780Z,66.17
2024-03-15T08:39:00.324Z,66.14
2024-03-15T08:41:27.349Z,65.63
2024-03-15T08:43:53.959Z,65.11
2024-03-15T08:46:20.637Z,64.65
2024-03-15T08:48:47.427Z,64.13
2024-03-15T08:51:15.083Z,63.05
2024-03-15T08:53:43.027Z,63.28
2024-03-15T08:56:09.817Z,62.95
2024-03-15T08:58:36.325Z,61.76
2024-03-15T09:01:06.073Z,62.46
2024-03-15T09:03:39.308Z,61.94
2024-03-15T09:06:10.204Z,59.95
2024-03-15T09:08:36.920Z,59.00
2024-03-15T09:11:04.589Z,59.90
2024-03-15T09:13:34.110Z,58.49
2024-03-15T09:16:03.584Z,61.12
2024-03-15T09:18:30.471Z,59.09
2024-03-15T09:20:58.023Z,58.34
2024-03-15T09:23:25.359Z,58.83
2024-03-15T09:25:51.961Z,57.85
2024-03-15T09:28:19.750Z,58.28
2024-03-15T09:31:04.039Z,56.39
2024-03-15T09:33:38.017Z,55.73
2024-03-15T09:36:06.549Z,55.11
2024-03-15T09:38:36.229Z,55.39
2024-03-15T09:41:02.856Z,54.36
2024-03-15T09:43:31.559Z,53.01
2024-03-15T09:45:59.017Z,52.89
2024-03-15T09:48:26.842Z,52.36
2024-03-15T09:50:54.175Z,52.65
2024-03-15T09:53:20.980Z,51.57
2024-03-15T09:55:54.025Z,50.91
2024-03-15T09:58:22.202Z,50.27
2024-03-15T10:00:49.308Z,51.83
2024-03-15T10:03:16.960Z,52.51
2024-03-15T10:05:44.452Z,52.51
2024-03-15T10:08:12.181Z,49.58
2024-03-15T10:10:40.658Z,49.86
2024-03-15T10:13:07.301Z,49.00
2024-03-15T10:15:34.093Z,47.53
2024-03-15T10:18:00.773Z,45.47
2024-03-15T10:20:27.399Z,39.99
2024-03-15T10:22:56.022Z,38.61
2024-03-15T10:25:25.915Z,38.57
2024-03-15T10:27:56.898Z,38.22
2024-03-15T10:30:29.844Z,36.16
2024-03-15T10:32:59.882Z,38.20
2024-03-15T10:35:29.328Z,39.23
2024-03-15T10:37:56.806Z,39.60
2024-03-15T10:40:26.062Z,41.08
2024-03-15T10:42:54.290Z,41.02
2024-03-15T10:45:27.216Z,42.25
2024-03-15T10:47:55.180Z,42.76
2024-03-15T10:50:28.913Z,42.30
2024-03-15T10:52:57.890Z,42.01
2024-03-15T10:55:31.166Z,43.00
2024-03-15T10:58:00.473Z,41.31
2024-03-15T11:00:30.791Z,40.20
2024-03-15T11:03:14.790Z,40.98
2024-03-15T11:05:41.423Z,38.79
2024-03-15T11:08:16.163Z,38.97
2024-03-15T11:10:57.119Z,40.43
2024-03-15T11:13:27.388Z,39.33
2024-03-15T11:15:54.391Z,39.53
2024-03-15T11:18:21.466Z,38.71
2024-03-15T11:20:48.228Z,38.48
2024-03-15T11:23:26.219Z,38.79
2024-03-15T11:26:00.901Z,38.14
2024-03-15T11:28:32.771Z,38.22
2024-03-15T11:31:00.027Z,38.32
2024-03-15T11:33:28.025Z,39.18
2024-03-15T11:35:56.254Z,38.95
2024-03-15T11:38:23.343Z,38.30
2024-03-15T11:40:55.080Z,38.68
2024-03-15T11:43:21.722Z,37.89
2024-03-15T11:45:48.982Z,37.99
2024-03-15T11:48:17.171Z,37.83
2024-03-15T11:50:45.986Z,37.39
2024-03-15T11:53:13.942Z,37.30
2024-03-15T11:55:44.181Z,36.19
2024-03-15T11:58:15.301Z,35.93
2024-03-15T12:00:42.881Z,35.04
2024-03-15T12:03:12.333Z,36.87
2024-03-15T12:05:43.062Z,36.15
2024-03-15T12:08:14.351Z,35.06
2024-03-15T12:10:41.486Z,36.46
2024-03-15T12:13:23.421Z,35.26
2024-03-15T12:15:52.323Z,34.18
2024-03-15T12:18:24.832Z,34.49
2024-03-15T12:20:52.960Z,35.05
2024-03-15T12:23:21.489Z,36.11
2024-03-15T12:25:49.555Z,35.17
2024-03-15T12:28:20.908Z,36.88
2024-03-15T12:30:50.129Z,36.47
2024-03-15T12:33:17.046Z,34.50
2024-03-15T12:35:45.083Z,35.23
2024-03-15T12:38:19.640Z,34.86
2024-03-15T12:40:46.656Z,35.06
2024-03-15T12:43:13.547Z,35.37
2024-03-15T12:45:42.653Z,34.75
2024-03-15T12:48:13.247Z,33.71
2024-03-15T12:50:41.491Z,34.01
2024-03-15T12:53:13.570Z,35.56
2024-03-15T12:55:41.506Z,35.47
2024-03-15T12:58:09.159Z,34.50
2024-03-15T13:00:36.164Z,35.89
2024-03-15T13:03:05.437Z,34.29
2024-03-15T13:05:32.048Z,34.24
2024-03-15T13:07:58.578Z,33.92
2024-03-15T13:10:25.185Z,35.57
2024-03-15T13:12:53.791Z,34.27
2024-03-15T13:15:20.930Z,34.46
2024-03-15T13:17:55.817Z,36.37
2024-03-15T13:20:23.476Z,36.03
2024-03-15T13:22:54.577Z,34.81
2024-03-15T13:25:34.529Z,34.71
2024-03-15T13:28:06.021Z,35.35
2024-03-15T13:30:33.665Z,35.39
2024-03-15T13:33:02.578Z,34.69
2024-03-15T13:35:30.351Z,36.00
2024-03-15T13:37:57.059Z,34.97
2024-03-15T13:40:25.896Z,34.69
2024-03-15T13:42:54.003Z,35.38
2024-03-15T13:45:23.459Z,35.69
2024-03-15T13:48:30.731Z,35.09
2024-03-15T13:50:58.390Z,35.95
2024-03-15T13:53:24.867Z,35.33
2024-03-15T13:55:51.528Z,35.65
2024-03-15T13:58:18.792Z,35.56
2024-03-15T14:00:45.586Z,34.59
2024-03-15T14:03:17.387Z,34.69
2024-03-15T14:05:43.936Z,34.36
2024-03-15T14:08:21.212Z,35.45
2024-03-15T14:10:48.251Z,35.81
2024-03-15T14:13:17.152Z,35.43
2024-03-15T14:15:44.156Z,35.54
2024-03-15T14:18:13.273Z,36.56
2024-03-15T14:20:42.731Z,36.87
2024-03-15T14:23:09.512Z,35.44
2024-03-15T14:25:36.075Z,34.69
2024-03-15T14:28:11.334Z,35.72
2024-03-15T14:30:38.822Z,35.19
2024-03-15T14:33:09.889Z,35.73
2024-03-15T14:35:37.458Z,36.79
2024-03-15T14:38:09.545Z,34.73
2024-03-15T14:40:38.641Z,35.56
2024-03-15T14:43:08.547Z,36.53
2024-03-15T14:45:36.992Z,36.16
2024-03-15T14:48:12.442Z,36.83
2024-03-15T14:50:41.196Z,35.93
2024-03-15T14:53:08.107Z,36.11
2024-03-15T14:55:35.348Z,36.25
2024-03-15T14:58:04.451Z,36.65
2024-03-15T15:00:32.279Z,36.58
2024-03-15T15:02:59.410Z,36.73
2024-03-15T15:05:26.124Z,36.24
2024-03-15T15:07:52.962Z,35.48
2024-03-15T15:10:19.765Z,37.97
2024-03-15T15:12:46.434Z,36.58
2024-03-15T15:15:17.520Z,37.18
2024-03-15T15:17:46.852Z,36.98
2024-03-15T15:20:16.703Z,39.46
2024-03-15T15:22:44.029Z,37.46
2024-03-15T15:25:12.007Z,37.32
2024-03-15T15:27:44.126Z,38.51
2024-03-15T15:30:18.124Z,40.43
2024-03-15T15:32:45.310Z,41.22
2024-03-15T15:35:14.434Z,38.42
2024-03-15T15:37:41.826Z,39.97
2024-03-15T15:40:18.497Z,38.70
2024-03-15T15:42:50.078Z,40.36
2024-03-15T15:45:18.643Z,40.90
2024-03-15T15:47:46.183Z,41.07
2024-03-15T15:50:19.642Z,42.23
2024-03-15T15:52:47.791Z,41.21
2024-03-15T15:55:15.732Z,43.12
2024-03-15T15:57:46.708Z,43.76
2024-03-15T16:00:20.967Z,43.01
2024-03-15T16:02:48.799Z,42.27
2024-03-15T16:05:15.803Z,45.85
2024-03-15T16:07:45.552Z,42.50
2024-03-15T16:10:17.076Z,42.40
2024-03-15T16:12:45.076Z,45.51
2024-03-15T16:15:12.072Z,45.12
2024-03-15T16:17:38.821Z,47.71
2024-03-15T16:20:05.824Z,47.09
2024-03-15T16:22:34.522Z,47.71
2024-03-15T16:25:02.364Z,47.89
2024-03-15T16:27:29.155Z,48.79
2024-03-15T16:29:56.776Z,48.55
2024-03-15T16:32:24.007Z,49.40
2024-03-15T16:34:51.525Z,50.17
2024-03-15T16:37:18.491Z,51.40
2024-03-15T16:39:46.004Z,51.73
2024-03-15T16:42:14.023Z,51.77
2024-03-15T16:44:41.217Z,53.59
2024-03-15T16:47:07.858Z,53.92
2024-03-15T16:49:34.538Z,53.37
2024-03-15T16:52:01.288Z,53.24
2024-03-15T16:54:28.360Z,54.00
2024-03-15T16:56:56.262Z,54.57
2024-03-15T16:59:22.786Z,54.51
2024-03-15T17:01:49.404Z,56.19
2024-03-15T17:04:16.024Z,55.15
2024-03-15T17:06:42.713Z,55.67
2024-03-15T17:09:14.430Z,56.00
2024-03-15T17:11:41.784Z,56.79
2024-03-15T17:14:08.460Z,56.66
2024-03-15T17:16:35.071Z,57.09
2024-03-15T17:19:03.681Z,57.35
2024-03-15T17:21:30.495Z,57.41
2024-03-15T17:23:57.278Z,57.22
2024-03-15T17:26:23.869Z,57.09
2024-03-15T17:28:50.406Z,57.74
2024-03-15T17:31:16.886Z,58.85
2024-03-15T17:33:43.500Z,59.12
2024-03-15T17:36:10.361Z,59.43
2024-03-15T17:38:36.946Z,58.93
2024-03-15T17:41:04.058Z,59.20
2024-03-15T17:43:30.626Z,58.98
2024-03-15T17:45:57.241Z,59.48
2024-03-15T17:48:23.903Z,59.84
2024-03-15T17:50:50.493Z,60.10
2024-03-15T17:53:17.120Z,60.58
2024-03-15T17:55:43.872Z,60.36
2024-03-15T17:58:10.883Z,59.80
2024-03-15T18:00:37.749Z,59.37
2024-03-15T18:03:05.314Z,59.47
2024-03-15T18:05:33.234Z,58.85
2024-03-15T18:08:00.280Z,58.38
2024-03-15T18:10:27.052Z,59.26
2024-03-15T18:12:54.521Z,59.60
2024-03-15T18:15:22.571Z,59.88
2024-03-15T18:17:49.626Z,60.31
2024-03-15T18:20:17.191Z,60.08
2024-03-15T18:22:43.663Z,61.54
2024-03-15T18:25:12.243Z,61.28
2024-03-15T18:27:39.133Z,61.05
2024-03-15T18:30:06.682Z,62.61
2024-03-15T18:32:33.444Z,63.01
2024-03-15T18:35:00.420Z,62.56
2024-03-15T18:37:27.680Z,63.91
2024-03-15T18:39:56.449Z,64.49
2024-03-15T18:42:24.378Z,64.19
2024-03-15T18:44:51.210Z,64.23
2024-03-15T18:47:17.813Z,64.55
2024-03-15T18:49:44.341Z,64.66
2024-03-15T18:52:11.957Z,64.85
2024-03-15T18:54:38.741Z,64.71
2024-03-15T18:57:07.270Z,64.19
2024-03-15T18:59:37.895Z,64.65
2024-03-15T19:02:06.379Z,64.52
2024-03-15T19:04:33.562Z,65.14
2024-03-15T19:07:00.678Z,65.81
2024-03-15T19:09:27.366Z,65.52
2024-03-15T19:11:54.123Z,66.32
2024-03-15T19:14:21.979Z,66.29
2024-03-15T19:16:48.538Z,66.68
2024-03-15T19:19:15.291Z,66.47
2024-03-15T19:21:42.138Z,66.60
2024-03-15T19:24:09.117Z,66.98
2024-03-15T19:26:36.159Z,67.42
2024-03-15T19:29:04.118Z,67.20
2024-03-15T19:31:30.888Z,67.17
2024-03-15T19:33:57.545Z,67.09
2024-03-15T19:36:24.235Z,67.05
2024-03-15T19:38:50.872Z,67.15
2024-03-15T19:41:17.922Z,67.59
2024-03-15T19:43:45.476Z,68.42
2024-03-15T19:46:12.265Z,68.69
2024-03-15T19:48:39.173Z,69.21
2024-03-15T19:51:05.811Z,69.17
2024-03-15T19:53:33.061Z,69.34
2024-03-15T19:55:59.935Z,69.30
2024-03-15T19:58:29.917Z,69.31
2024-03-15T20:00:58.848Z,70.00
2024-03-15T20:03:25.712Z,70.22
2024-03-15T20:05:56.072Z,70.57
2024-03-15T20:08:23.949Z,70.84
2024-03-15T20:10:51.050Z,70.42
2024-03-15T20:13:17.945Z,70.98
2024-03-15T20:15:45.613Z,70.59
2024-03-15T20:18:12.483Z,71.19
2024-03-15T20:20:40.623Z,70.89
2024-03-15T20:23:08.074Z,70.52
2024-03-15T20:25:34.814Z,70.62
2024-03-15T20:28:04.342Z,70.90
2024-03-15T20:30:31.633Z,69.74
2024-03-15T20:32:59.599Z,69.50
2024-03-15T20:35:29.306Z,69.11
2024-03-15T20:37:57.639Z,68.82
2024-03-15T20:40:27.884Z,68.31
2024-03-15T20:42:55.961Z,69.92
2024-03-15T20:45:23.804Z,70.62
2024-03-15T20:47:51.116Z,71.03
2024-03-15T20:50:18.387Z,71.03
2024-03-15T20:52:45.616Z,71.28
2024-03-15T20:55:12.456Z,71.52
2024-03-15T20:57:39.205Z,72.09
2024-03-15T21:00:08.784Z,72.26
2024-03-15T21:02:35.440Z,72.09
2024-03-15T21:05:01.923Z,71.68
2024-03-15T21:07:28.660Z,71.95
2024-03-15T21:09:55.300Z,71.74
2024-03-15T21:12:27.327Z,71.99
2024-03-15T21:14:53.960Z,72.04
2024-03-15T21:17:20.533Z,70.72
2024-03-15T21:19:49.957Z,70.82
2024-03-15T21:22:16.635Z,71.82
2024-03-15T21:24:43.798Z,71.96
2024-03-15T21:27:10.348Z,72.08
2024-03-15T21:29:36.870Z,72.00
2024-03-15T21:32:05.076Z,71.96
2024-03-15T21:34:31.690Z,71.27
2024-03-15T21:36:58.563Z,72.14
2024-03-15T21:39:25.797Z,72.41
2024-03-15T21:41:52.483Z,72.78
2024-03-15T21:44:19.143Z,72.61
2024-03-15T21:46:47.637Z,72.58
2024-03-15T21:49:14.955Z,72.97
2024-03-15T21:51:41.623Z,73.20
2024-03-15T21:54:08.271Z,73.45
2024-03-15T21:56:34.864Z,73.72
2024-03-15T21:59:06.212Z,73.93
2024-03-15T22:01:36.401Z,73.50
2024-03-15T22:04:07.428Z,73.34
2024-03-15T22:06:39.269Z,73.93
2024-03-15T22:09:06.154Z,73.82
2024-03-15T22:11:32.679Z,73.83
2024-03-15T22:14:00.941Z,73.84
2024-03-15T22:16:29.544Z,72.84
2024-03-15T22:18:57.281Z,71.70
2024-03-15T22:21:24.382Z,70.33
2024-03-15T22:23:50.994Z,72.26
2024-03-15T22:26:18.157Z,73.24
2024-03-15T22:28:44.777Z,74.51
2024-03-15T22:31:12.074Z,74.50
2024-03-15T22:33:39.848Z,74.55
2024-03-15T22:36:10.263Z,74.67
2024-03-15T22:38:37.246Z,74.01
2024-03-15T22:41:03.944Z,73.83
2024-03-15T22:43:30.998Z,74.05
2024-03-15T22:45:58.736Z,73.95
2024-03-15T22:48:25.431Z,74.13
2024-03-15T22:50:52.125Z,74.75
2024-03-15T22:53:18.757Z,74.03
2024-03-15T22:55:48.151Z,74.49
2024-03-15T22:58:14.846Z,74.78
2024-03-15T23:00:44.523Z,74.97
2024-03-15T23:03:11.254Z,75.25
2024-03-15T23:05:37.995Z,74.86
2024-03-15T23:08:04.781Z,75.13
2024-03-15T23:10:31.330Z,74.66
2024-03-15T23:13:00.531Z,74.29
2024-03-15T23:15:27.805Z,74.69
2024-03-15T23:17:55.969Z,74.51
2024-03-15T23:20:22.705Z,74.80
2024-03-15T23:22:50.286Z,75.15
2024-03-15T23:25:18.962Z,75.30
2024-03-15T23:27:46.881Z,75.80
2024-03-15T23:30:13.663Z,76.03
2024-03-15T23:32:40.521Z,75.60
2024-03-15T23:35:09.246Z,75.99
2024-03-15T23:37:36.004Z,76.30
2024-03-15T23:40:02.817Z,76.64
2024-03-15T23:42:29.711Z,77.06
2024-03-15T23:44:56.244Z,76.84
2024-03-15T23:47:23.951Z,76.95
2024-03-15T23:49:50.530Z,76.60
2024-03-15T23:52:17.862Z,76.46
2024-03-15T23:54:45.165Z,76.54
2024-03-15T23:57:11.884Z,76.62
2024-03-15T23:59:38.433Z,76.27
